KCMI/CMI METAR and TAF weather

Enter ICAO airport designator
Station Type Date Time Source
KCMI METAR 2018/01/24 06:53 UTC NOAA

KCMI 240653Z AUTO 26011KT 10SM OVC016 M01/M04 A3020 RMK AO2 SLP233 T10111039


Station Type Date Time Source
KCMI Decoded METAR 2018/01/24 06:53 UTC NOAA

UNIV OF ILLINOIS-WILLARD, IL, United States (KCMI) 40-02N 088-16W 228M
Jan 24, 2018 - 01:53 AM EST / 2018.01.24 0653 UTC
Wind: from the W (260 degrees) at 13 MPH (11 KT):0
Visibility: 10 mile(s):0
Sky conditions: overcast
Temperature: 30.0 F (-1.1 C)
Windchill: 19 F (-7 C):1
Dew Point: 25.0 F (-3.9 C)
Relative Humidity: 81%
Pressure (altimeter): 30.2 in. Hg (1022 hPa)
ob: KCMI 240653Z AUTO 26011KT 10SM OVC016 M01/M04 A3020 RMK AO2 SLP233 T10111039
cycle: 7

Station Type Date Time Source
KCMI TAF 2018/01/24 06:22 UTC NOAA

TAF KCMI 240520Z 2406/2506 29008KT P6SM OVC018
FM241300 29006KT P6SM VCSH OVC012
FM241800 28008KT P6SM BKN020
FM242200 27006KT P6SM SCT025 BKN150
FM250100 VRB05KT P6SM FEW020 SCT130


Example: see airport list